createdAt,value
2022-10-05T00:01:31.231Z,11.35
2022-10-05T00:04:34.148Z,11.37
2022-10-05T00:07:36.472Z,11.35
2022-10-05T00:10:41.426Z,11.41
2022-10-05T00:13:43.807Z,11.34
2022-10-05T00:16:47.307Z,11.29
2022-10-05T00:19:53.950Z,11.32
2022-10-05T00:22:58.466Z,11.29
2022-10-05T00:26:12.115Z,11.26
2022-10-05T00:29:18.963Z,11.22
2022-10-05T00:32:21.324Z,11.19
2022-10-05T00:35:24.606Z,11.21
2022-10-05T00:38:28.247Z,11.17
2022-10-05T00:41:40.636Z,11.11
2022-10-05T00:44:50.739Z,11.09
2022-10-05T00:47:59.540Z,11.10
2022-10-05T00:51:07.728Z,11.10
2022-10-05T00:54:28.718Z,11.05
2022-10-05T00:57:49.214Z,11.02
2022-10-05T01:00:58.711Z,10.99
2022-10-05T01:04:12.739Z,11.01
2022-10-05T01:07:24.841Z,10.99
2022-10-05T01:10:43.310Z,10.98
2022-10-05T01:13:52.338Z,10.92
2022-10-05T01:17:17.089Z,10.98
2022-10-05T01:20:19.779Z,10.92
2022-10-05T01:23:25.039Z,10.86
2022-10-05T01:26:42.724Z,10.85
2022-10-05T01:29:51.430Z,10.82
2022-10-05T01:33:00.496Z,10.80
2022-10-05T01:36:06.184Z,10.74
2022-10-05T01:39:28.626Z,10.69
2022-10-05T01:42:33.643Z,10.67
2022-10-05T01:45:48.544Z,10.67
2022-10-05T01:48:50.731Z,10.61
2022-10-05T01:52:03.583Z,10.61
2022-10-05T01:55:08.574Z,10.59
2022-10-05T01:58:23.080Z,10.59
2022-10-05T02:01:44.639Z,10.56
2022-10-05T02:05:03.240Z,10.55
2022-10-05T02:08:09.955Z,10.55
2022-10-05T02:11:15.008Z,10.55
2022-10-05T02:14:24.057Z,10.57
2022-10-05T02:17:36.648Z,10.66
2022-10-05T02:20:40.281Z,10.64
2022-10-05T02:23:44.673Z,10.57
2022-10-05T02:26:47.847Z,10.52
2022-10-05T02:29:56.844Z,10.50
2022-10-05T02:33:06.640Z,10.48
2022-10-05T02:36:23.890Z,10.48
2022-10-05T02:39:32.880Z,10.45
2022-10-05T02:42:42.006Z,10.47
2022-10-05T02:45:50.907Z,10.44
2022-10-05T02:49:09.163Z,10.47
2022-10-05T02:52:33.093Z,10.40
2022-10-05T02:55:45.162Z,10.35
2022-10-05T02:58:59.266Z,10.32
2022-10-05T03:02:08.694Z,10.29
2022-10-05T03:05:23.817Z,10.29
2022-10-05T03:08:29.740Z,10.27
2022-10-05T03:11:35.101Z,10.26
2022-10-05T03:14:50.231Z,10.19
2022-10-05T03:17:58.649Z,10.13
2022-10-05T03:21:08.256Z,10.10
2022-10-05T03:24:29.718Z,10.06
2022-10-05T03:27:41.751Z,10.02
2022-10-05T03:30:48.557Z,9.97
2022-10-05T03:34:06.312Z,9.99
2022-10-05T03:37:32.161Z,9.97
2022-10-05T03:40:43.262Z,9.96
2022-10-05T03:44:03.573Z,9.96
2022-10-05T03:47:25.327Z,9.93
2022-10-05T03:50:51.944Z,10.01
2022-10-05T03:54:03.053Z,9.95
2022-10-05T03:57:11.988Z,9.91
2022-10-05T04:00:17.604Z,9.91
2022-10-05T04:03:24.757Z,9.90
2022-10-05T04:06:30.573Z,9.85
2022-10-05T04:09:45.705Z,9.84
2022-10-05T04:12:51.180Z,9.79
2022-10-05T04:16:17.010Z,9.78
2022-10-05T04:19:19.928Z,9.78
2022-10-05T04:22:30.741Z,9.73
2022-10-05T04:25:39.705Z,9.75
2022-10-05T04:28:58.938Z,9.73
2022-10-05T04:32:04.199Z,9.71
2022-10-05T04:35:07.366Z,9.73
2022-10-05T04:38:28.294Z,9.65
2022-10-05T04:41:40.065Z,9.62
2022-10-05T04:44:42.764Z,9.63
2022-10-05T04:47:51.843Z,9.65
2022-10-05T04:51:07.282Z,9.68
2022-10-05T04:54:21.959Z,9.64
2022-10-05T04:57:32.337Z,9.66
2022-10-05T05:00:37.987Z,9.67
2022-10-05T05:03:59.347Z,9.74
2022-10-05T05:07:21.085Z,9.70
2022-10-05T05:10:38.899Z,9.72
2022-10-05T05:14:00.494Z,9.72
2022-10-05T05:17:03.069Z,9.74
2022-10-05T05:20:05.664Z,9.83
2022-10-05T05:23:12.819Z,9.86
2022-10-05T05:26:21.665Z,9.88
2022-10-05T05:29:43.002Z,9.90
2022-10-05T05:32:52.089Z,9.92
2022-10-05T05:36:04.729Z,9.95
2022-10-05T05:39:16.318Z,10.00
2022-10-05T05:42:31.615Z,10.08
2022-10-05T05:46:03.460Z,10.14
2022-10-05T05:49:26.357Z,10.25
2022-10-05T05:52:31.978Z,10.33
2022-10-05T05:55:36.725Z,10.47
2022-10-05T05:58:48.725Z,10.58
2022-10-05T06:01:54.120Z,10.67
2022-10-05T06:05:09.807Z,10.72
2022-10-05T06:08:24.857Z,10.79
2022-10-05T06:11:30.907Z,10.89
2022-10-05T06:14:37.304Z,11.08
2022-10-05T06:17:43.375Z,11.18
2022-10-05T06:20:48.826Z,11.28
2022-10-05T06:23:54.845Z,11.44
2022-10-05T06:27:29.774Z,11.46
2022-10-05T06:30:47.641Z,11.64
2022-10-05T06:33:52.087Z,11.72
2022-10-05T06:37:03.742Z,11.73
2022-10-05T06:40:15.428Z,11.78
2022-10-05T06:43:17.939Z,11.98
2022-10-05T06:46:28.087Z,12.14
2022-10-05T06:49:51.529Z,12.29
2022-10-05T06:53:10.984Z,12.44
2022-10-05T06:56:25.633Z,12.57
2022-10-05T06:59:48.298Z,12.62
2022-10-05T07:03:09.892Z,12.76
2022-10-05T07:06:21.384Z,12.88
2022-10-05T07:09:32.737Z,12.96
2022-10-05T07:12:45.570Z,13.27
2022-10-05T07:15:55.006Z,13.81
2022-10-05T07:19:16.236Z,14.02
2022-10-05T07:22:18.972Z,14.27
2022-10-05T07:25:33.764Z,14.56
2022-10-05T07:29:10.742Z,14.80
2022-10-05T07:32:29.007Z,15.41
2022-10-05T07:35:56.542Z,16.20
2022-10-05T07:39:02.721Z,16.89
2022-10-05T07:42:24.427Z,18.21
2022-10-05T07:45:40.025Z,22.42
2022-10-05T07:49:00.595Z,29.01
2022-10-05T07:52:06.625Z,34.07
2022-10-05T07:55:14.804Z,37.98
2022-10-05T07:58:28.916Z,40.17
2022-10-05T08:01:34.931Z,42.84
2022-10-05T08:04:41.978Z,45.17
2022-10-05T08:07:45.846Z,45.97
2022-10-05T08:11:05.369Z,46.42
2022-10-05T08:14:17.136Z,47.16
2022-10-05T08:17:31.894Z,47.95
2022-10-05T08:20:34.167Z,47.90
2022-10-05T08:23:42.116Z,48.32
2022-10-05T08:26:55.398Z,47.72
2022-10-05T08:30:11.611Z,47.49
2022-10-05T08:33:16.992Z,45.58
2022-10-05T08:36:26.211Z,42.75
2022-10-05T08:39:31.283Z,39.77
2022-10-05T08:42:52.172Z,35.28
2022-10-05T08:45:54.496Z,32.64
2022-10-05T08:48:57.321Z,31.32
2022-10-05T08:52:18.672Z,30.50
2022-10-05T08:55:40.224Z,30.39
2022-10-05T08:58:48.848Z,29.85
2022-10-05T09:01:55.407Z,28.35
2022-10-05T09:05:03.098Z,26.74
2022-10-05T09:08:32.151Z,24.46
2022-10-05T09:11:39.098Z,23.99
2022-10-05T09:15:13.691Z,24.64
2022-10-05T09:18:36.368Z,23.54
2022-10-05T09:21:45.906Z,23.88
2022-10-05T09:25:02.039Z,23.73
2022-10-05T09:28:07.955Z,24.65
2022-10-05T09:31:14.071Z,25.47
2022-10-05T09:34:53.685Z,25.74
2022-10-05T09:37:58.839Z,25.76
2022-10-05T09:41:20.587Z,26.22
2022-10-05T09:44:22.839Z,26.45
2022-10-05T09:47:45.238Z,26.04
2022-10-05T09:51:23.269Z,24.96
2022-10-05T09:54:29.261Z,23.97
2022-10-05T09:57:40.619Z,24.05
2022-10-05T10:01:03.756Z,23.91
2022-10-05T10:04:15.605Z,23.70
2022-10-05T10:07:19.046Z,23.25
2022-10-05T10:10:57.112Z,23.57
2022-10-05T10:14:02.317Z,24.82
2022-10-05T10:17:40.482Z,25.62
2022-10-05T10:20:42.825Z,25.32
2022-10-05T10:24:14.112Z,24.36
2022-10-05T10:27:16.568Z,24.30
2022-10-05T10:30:27.509Z,25.20
2022-10-05T10:33:46.282Z,25.57
2022-10-05T10:37:08.008Z,25.50
2022-10-05T10:40:13.585Z,25.24
2022-10-05T10:43:45.423Z,24.03
2022-10-05T10:46:50.876Z,22.43
2022-10-05T10:49:53.703Z,21.93
2022-10-05T10:53:15.046Z,21.72
2022-10-05T10:56:41.965Z,21.71
2022-10-05T10:59:44.436Z,22.63
2022-10-05T11:02:56.469Z,23.38
2022-10-05T11:05:59.146Z,23.12
2022-10-05T11:09:05.052Z,23.21
2022-10-05T11:12:26.100Z,23.38
2022-10-05T11:15:48.302Z,23.48
2022-10-05T11:19:04.811Z,23.20
2022-10-05T11:22:25.952Z,23.87
2022-10-05T11:25:28.635Z,23.88
2022-10-05T11:28:49.965Z,24.31
2022-10-05T11:31:58.292Z,24.32
2022-10-05T11:35:16.048Z,24.66
2022-10-05T11:38:40.115Z,24.51
2022-10-05T11:41:42.904Z,24.42
2022-10-05T11:44:46.952Z,24.06
2022-10-05T11:48:18.014Z,24.08
2022-10-05T11:51:29.285Z,24.25
2022-10-05T11:55:05.816Z,24.38
2022-10-05T11:58:16.178Z,24.52
2022-10-05T12:01:34.766Z,24.52
2022-10-05T12:04:56.397Z,24.69
2022-10-05T12:08:05.164Z,24.55
2022-10-05T12:11:13.439Z,24.30
2022-10-05T12:14:25.795Z,23.96
2022-10-05T12:17:40.994Z,23.51
2022-10-05T12:21:13.047Z,23.46
2022-10-05T12:24:30.194Z,23.27
2022-10-05T12:27:40.136Z,23.40
2022-10-05T12:30:52.633Z,23.35
2022-10-05T12:34:16.871Z,23.39
2022-10-05T12:37:25.919Z,23.47
2022-10-05T12:40:28.192Z,23.18
2022-10-05T12:43:43.700Z,22.63
2022-10-05T12:47:23.844Z,22.75
2022-10-05T12:50:55.753Z,22.78
2022-10-05T12:54:00.960Z,22.68
2022-10-05T12:57:19.122Z,22.49
2022-10-05T13:00:23.273Z,21.48
2022-10-05T13:03:34.685Z,21.19
2022-10-05T13:06:43.020Z,21.25
2022-10-05T13:10:00.378Z,21.81
2022-10-05T13:13:05.567Z,21.81
2022-10-05T13:16:08.336Z,21.54
2022-10-05T13:19:13.427Z,21.03
2022-10-05T13:22:22.277Z,20.74
2022-10-05T13:25:45.228Z,20.72
2022-10-05T13:28:55.257Z,20.51
2022-10-05T13:32:00.464Z,20.48
2022-10-05T13:35:15.420Z,20.70
2022-10-05T13:38:36.852Z,21.06
2022-10-05T13:42:02.969Z,21.17
2022-10-05T13:45:12.998Z,21.08
2022-10-05T13:48:22.914Z,20.81
2022-10-05T13:51:29.466Z,20.82
2022-10-05T13:54:34.979Z,20.83
2022-10-05T13:57:45.192Z,20.64
2022-10-05T14:00:50.979Z,20.57
2022-10-05T14:04:12.096Z,20.49
2022-10-05T14:07:26.533Z,20.61
2022-10-05T14:10:39.877Z,20.52
2022-10-05T14:13:46.852Z,20.52
2022-10-05T14:16:51.988Z,20.29
2022-10-05T14:19:56.973Z,20.20
2022-10-05T14:23:01.976Z,20.29
2022-10-05T14:26:17.435Z,20.16
2022-10-05T14:29:35.202Z,20.18
2022-10-05T14:32:57.172Z,20.20
2022-10-05T14:36:00.019Z,20.05
2022-10-05T14:39:05.124Z,19.94
2022-10-05T14:42:19.069Z,19.98
2022-10-05T14:45:23.801Z,19.94
2022-10-05T14:48:28.684Z,19.74
2022-10-05T14:51:32.246Z,19.69
2022-10-05T14:54:44.374Z,19.58
2022-10-05T14:58:07.128Z,19.51
2022-10-05T15:01:31.505Z,19.37
2022-10-05T15:04:39.343Z,19.28
2022-10-05T15:07:43.994Z,19.25
2022-10-05T15:10:52.953Z,19.14
2022-10-05T15:13:55.589Z,19.03
2022-10-05T15:17:01.785Z,18.90
2022-10-05T15:20:17.692Z,18.88
2022-10-05T15:23:32.498Z,18.91
2022-10-05T15:26:47.133Z,18.83
2022-10-05T15:29:57.726Z,18.67
2022-10-05T15:33:15.367Z,18.66
2022-10-05T15:36:20.057Z,18.59
2022-10-05T15:39:35.219Z,18.50
2022-10-05T15:42:38.768Z,18.48
2022-10-05T15:45:43.499Z,18.37
2022-10-05T15:48:46.032Z,18.20
2022-10-05T15:51:50.787Z,18.16
2022-10-05T15:54:56.142Z,18.08
2022-10-05T15:58:17.526Z,18.08
2022-10-05T16:01:19.995Z,18.06
2022-10-05T16:04:41.654Z,17.93
2022-10-05T16:08:08.178Z,17.90
2022-10-05T16:11:18.353Z,17.84
2022-10-05T16:14:40.230Z,17.78
2022-10-05T16:18:01.407Z,17.76
2022-10-05T16:21:14.057Z,17.71
2022-10-05T16:24:18.717Z,17.63
2022-10-05T16:27:28.906Z,17.57
2022-10-05T16:30:40.700Z,17.48
2022-10-05T16:34:02.071Z,17.49
2022-10-05T16:37:16.804Z,17.38
2022-10-05T16:40:34.595Z,17.34
2022-10-05T16:43:45.922Z,17.26
2022-10-05T16:47:27.474Z,17.20
2022-10-05T16:50:30.617Z,17.14
2022-10-05T16:53:36.079Z,17.04
2022-10-05T16:56:51.278Z,16.98
2022-10-05T16:59:53.655Z,16.94
2022-10-05T17:02:59.007Z,16.95
2022-10-05T17:06:20.072Z,16.85
2022-10-05T17:09:22.699Z,16.85
2022-10-05T17:12:37.620Z,16.74
2022-10-05T17:16:04.116Z,16.74
2022-10-05T17:19:15.333Z,16.68
2022-10-05T17:22:23.885Z,16.57
2022-10-05T17:25:36.530Z,16.50
2022-10-05T17:28:41.607Z,16.42
2022-10-05T17:32:03.039Z,16.42
2022-10-05T17:35:19.042Z,16.38
2022-10-05T17:38:23.595Z,16.41
2022-10-05T17:41:30.276Z,16.38
2022-10-05T17:44:32.954Z,16.34
2022-10-05T17:47:57.316Z,16.41
2022-10-05T17:51:18.148Z,16.27
2022-10-05T17:54:41.137Z,16.26
2022-10-05T17:57:43.803Z,16.17
2022-10-05T18:00:58.347Z,16.19
2022-10-05T18:04:11.938Z,16.20
2022-10-05T18:07:22.723Z,16.19
2022-10-05T18:10:29.333Z,16.23
2022-10-05T18:13:31.538Z,16.10
2022-10-05T18:16:54.076Z,16.09
2022-10-05T18:20:15.100Z,15.98
2022-10-05T18:23:23.901Z,16.03
2022-10-05T18:26:48.017Z,15.91
2022-10-05T18:30:05.413Z,15.90
2022-10-05T18:33:10.752Z,15.81
2022-10-05T18:36:27.545Z,15.82
2022-10-05T18:39:32.590Z,15.79
2022-10-05T18:42:48.500Z,15.72
2022-10-05T18:45:54.176Z,15.69
2022-10-05T18:48:56.835Z,15.72
2022-10-05T18:52:06.458Z,15.65
2022-10-05T18:55:21.448Z,15.63
2022-10-05T18:58:35.830Z,15.55
2022-10-05T19:01:52.362Z,15.56
2022-10-05T19:05:05.650Z,15.53
2022-10-05T19:08:32.966Z,15.53
2022-10-05T19:11:45.267Z,15.48
2022-10-05T19:14:54.243Z,15.45
2022-10-05T19:18:08.464Z,15.59
2022-10-05T19:21:24.652Z,15.45
2022-10-05T19:24:33.408Z,15.31
2022-10-05T19:27:36.672Z,15.20
2022-10-05T19:30:45.381Z,15.23
2022-10-05T19:34:07.002Z,15.13
2022-10-05T19:37:09.436Z,15.11
2022-10-05T19:40:26.422Z,15.06
2022-10-05T19:43:35.691Z,15.05
2022-10-05T19:46:44.582Z,15.04
2022-10-05T19:49:53.036Z,15.04
2022-10-05T19:53:09.366Z,15.00
2022-10-05T19:56:20.370Z,14.95
2022-10-05T19:59:26.636Z,14.94
2022-10-05T20:06:10.958Z,15.47
2022-10-05T20:09:21.911Z,15.47
2022-10-05T20:12:50.802Z,14.93
2022-10-05T20:16:45.525Z,14.81
2022-10-05T20:20:08.099Z,14.78
2022-10-05T20:23:24.606Z,14.75
2022-10-05T20:27:04.177Z,14.68
2022-10-05T20:30:09.864Z,14.62
2022-10-05T20:33:14.735Z,14.57
2022-10-05T20:36:17.657Z,14.55
2022-10-05T20:39:21.371Z,14.50
2022-10-05T20:42:26.735Z,14.48
2022-10-05T20:45:29.328Z,14.48
2022-10-05T20:48:36.790Z,14.43
2022-10-05T20:51:40.216Z,14.42
2022-10-05T20:54:43.253Z,14.36
2022-10-05T20:57:46.228Z,14.34
2022-10-05T21:01:08.145Z,14.34
2022-10-05T21:04:10.852Z,14.38
2022-10-05T21:07:15.621Z,14.33
2022-10-05T21:10:18.122Z,14.32
2022-10-05T21:13:21.351Z,14.28
2022-10-05T21:16:24.918Z,14.25
2022-10-05T21:19:29.427Z,14.20
2022-10-05T21:22:31.984Z,14.18
2022-10-05T21:25:34.984Z,14.13
2022-10-05T21:28:38.995Z,14.07
2022-10-05T21:31:42.201Z,14.04
2022-10-05T21:34:44.671Z,14.00
2022-10-05T21:37:47.617Z,13.97
2022-10-05T21:40:50.231Z,13.95
2022-10-05T21:43:53.502Z,13.94
2022-10-05T21:46:56.613Z,13.92
2022-10-05T21:50:00.445Z,13.89
2022-10-05T21:53:05.633Z,13.83
2022-10-05T21:56:12.735Z,13.82
2022-10-05T21:59:19.168Z,13.82
2022-10-05T22:02:23.255Z,13.83
2022-10-05T22:05:26.045Z,13.85
2022-10-05T22:08:31.127Z,13.80
2022-10-05T22:11:34.324Z,13.71
2022-10-05T22:14:37.183Z,13.73
2022-10-05T22:17:40.646Z,13.67
2022-10-05T22:20:44.051Z,13.66
2022-10-05T22:23:47.352Z,13.64
2022-10-05T22:26:53.695Z,13.63
2022-10-05T22:29:58.055Z,13.62
2022-10-05T22:33:00.761Z,13.59
2022-10-05T22:36:04.766Z,13.58
2022-10-05T22:39:08.148Z,13.58
2022-10-05T22:42:10.997Z,13.54
2022-10-05T22:45:14.390Z,13.54
2022-10-05T22:48:17.214Z,13.54
2022-10-05T22:51:19.858Z,13.53
2022-10-05T22:54:26.255Z,13.50
2022-10-05T22:57:41.555Z,13.48
2022-10-05T23:00:58.137Z,13.50
2022-10-05T23:04:02.108Z,13.47
2022-10-05T23:07:05.573Z,13.44
2022-10-05T23:10:11.121Z,13.44
2022-10-05T23:13:15.332Z,13.42
2022-10-05T23:16:21.542Z,13.39
2022-10-05T23:19:24.340Z,13.32
2022-10-05T23:22:27.070Z,13.27
2022-10-05T23:25:29.876Z,13.27
2022-10-05T23:28:33.727Z,13.28
2022-10-05T23:31:36.973Z,13.27
2022-10-05T23:34:39.638Z,13.29
2022-10-05T23:37:44.406Z,13.29
2022-10-05T23:40:47.592Z,13.29
2022-10-05T23:43:50.565Z,13.30
2022-10-05T23:46:53.299Z,13.27
2022-10-05T23:49:56.060Z,13.27
2022-10-05T23:52:58.688Z,13.25
2022-10-05T23:56:01.843Z,13.20
2022-10-05T23:59:04.445Z,13.18
